| Date | Time | Temp. (oF) | Dew Point (oF) | Rel. Hum. (%) | Press. (in.) | Wind Dir. (deg.) | Wind Speed (mph) | Hourly Rainfall (i n.) |
|
|---|---|---|---|---|---|---|---|---|---|
| 1 | 05/13 | 24:00 | 60 | 55 | 84 | 30.07 | 20 | 0 | 0.00 |
| 2 | 05/12 | 23:00 | 60 | 54 | 82 | 30.08 | 20 | 1 | 0.11 |
| 3 | 05/12 | 22:00 | 63 | 56 | 78 | 30.10 | 130 | 6 | 0.25 |
| 4 | 05/12 | 21:00 | 73 | 59 | 62 | 30.08 | 230 | 7 | 0.00 |
| 5 | 05/12 | 20:00 | 75 | 56 | 52 | 30.04 | 70 | 0 | 0.00 |
| 6 | 05/12 | 19:00 | 79 | 53 | 41 | 30.04 | 10 | 0 | 0.00 |
| 7 | 05/12 | 18:00 | 81 | 53 | 39 | 30.04 | 350 | 2 | 0.00 |
| 8 | 05/12 | 17:00 | 82 | 51 | 35 | 30.04 | 310 | 7 | 0.00 |
| 9 | 05/12 | 16:00 | 81 | 53 | 39 | 30.07 | 290 | 2 | 0.00 |
| 10 | 05/12 | 15:00 | 81 | 56 | 43 | 30.08 | 290 | 4 | 0.00 |
| 11 | 05/12 | 14:00 | 82 | 58 | 46 | 30.08 | 290 | 4 | 0.00 |
| 12 | 05/12 | 13:00 | 80 | 58 | 48 | 30.10 | 270 | 9 | 0.00 |
| 13 | 05/12 | 12:00 | 77 | 56 | 49 | 30.11 | 270 | 4 | 0.00 |
| 14 | 05/12 | 11:00 | 72 | 56 | 58 | 30.13 | 10 | 0 | 0.00 |
| 15 | 05/12 | 10:00 | 64 | 55 | 74 | 30.21 | 250 | 4 | 0.00 |
| 16 | 05/12 | 09:00 | 59 | 53 | 81 | 30.21 | 180 | 0 | 0.00 |
| 17 | 05/12 | 08:00 | 55 | 50 | 85 | 30.21 | 180 | 0 | 0.00 |
| 18 | 05/12 | 07:00 | 53 | 48 | 85 | 30.21 | 180 | 0 | 0.00 |
| 19 | 05/12 | 06:00 | 52 | 46 | 83 | 30.20 | 180 | 0 | 0.00 |
| 20 | 05/12 | 05:00 | 52 | 46 | 82 | 30.20 | 180 | 0 | 0.00 |
| 21 | 05/12 | 04:00 | 53 | 46 | 78 | 30.22 | 180 | 0 | 0.00 |
| 22 | 05/12 | 03:00 | 55 | 46 | 74 | 30.24 | 180 | 0 | 0.00 |
| 23 | 05/12 | 02:00 | 57 | 46 | 69 | 30.26 | 180 | 0 | 0.00 |
| 24 | 05/12 | 01:00 | 59 | 47 | 66 | 30.28 | 180 | 0 | 0.00 |